Time;durP1;ratioP1;P1;durP2;ratioP2;P2;SDS_P1;SDS_P2;PMS_P1;PMS_P2;Temp;Humidity;BMP_temperature;BMP_pressure;BME280_temperature;BME280_humidity;BME280_pressure;Samples;Min_cycle;Max_cycle;Signal;HPM_P1;HPM_P2
2023/04/11 00:01:22;;;;;;;1.83;0.60;;;;;;;6.44;71.46;99418.28;4939623;28;20049;-49
2023/04/11 00:03:48;;;;;;;3.33;0.90;;;;;;;6.46;71.63;99423.44;4942596;28;20134;-48
2023/04/11 00:06:15;;;;;;;1.42;0.68;;;;;;;6.41;72.55;99419.13;4941105;28;20054;-51
2023/04/11 00:08:43;;;;;;;4.13;1.20;;;;;;;6.43;71.29;99421.72;4940850;28;20058;-54
2023/04/11 00:11:10;;;;;;;6.47;1.15;;;;;;;6.43;72.63;99425.13;4943016;28;20055;-50
2023/04/11 00:13:37;;;;;;;3.28;0.75;;;;;;;6.38;71.93;99419.13;4944644;28;20083;-52
2023/04/11 00:16:04;;;;;;;3.60;0.80;;;;;;;6.35;72.82;99429.38;4941974;28;20059;-52
2023/04/11 00:18:34;;;;;;;2.80;2.50;;;;;;;6.39;71.97;99425.97;4941432;28;20047;-54
2023/04/11 00:21:03;;;;;;;;;;;;;;;6.38;72.38;99429.41;4943443;28;20219;-53
2023/04/11 00:23:30;;;;;;;5.65;1.33;;;;;;;6.43;71.06;99432.00;4940074;29;19949;-53
2023/04/11 00:25:58;;;;;;;6.22;2.67;;;;;;;6.36;72.29;99436.28;4944123;28;20058;-54
2023/04/11 00:28:26;;;;;;;3.72;2.20;;;;;;;6.38;72.43;99436.28;4938643;28;20553;-52
2023/04/11 00:30:54;;;;;;;3.30;1.83;;;;;;;6.38;71.52;99439.69;4941851;28;20051;-51
2023/04/11 00:33:22;;;;;;;3.75;2.05;;;;;;;6.32;72.55;99444.81;4939561;28;20150;-50
2023/04/11 00:35:49;;;;;;;4.15;2.70;;;;;;;6.37;71.82;99444.81;4937276;28;20083;-51
2023/04/11 00:38:17;;;;;;;1.60;0.63;;;;;;;6.35;71.30;99443.97;4938343;28;20103;-52
2023/04/11 00:40:45;;;;;;;3.53;0.85;;;;;;;6.36;72.15;99451.69;4938454;28;20407;-54
2023/04/11 00:43:12;;;;;;;4.20;0.82;;;;;;;6.39;71.83;99451.69;4939570;28;20130;-53
2023/04/11 00:45:40;;;;;;;2.88;1.40;;;;;;;6.36;71.49;99445.69;4940326;28;20066;-51
2023/04/11 00:48:09;;;;;;;6.13;1.45;;;;;;;6.34;72.17;99444.81;4947491;28;20408;-47
2023/04/11 00:50:40;;;;;;;4.13;2.25;;;;;;;6.33;71.22;99451.69;4947716;28;20057;-50
2023/04/11 00:53:11;;;;;;;2.10;1.48;;;;;;;6.34;72.34;99453.38;4940946;29;20058;-54
2023/04/11 00:55:40;;;;;;;1.75;1.65;;;;;;;6.32;71.23;99455.13;4941591;28;20055;-56
2023/04/11 00:58:07;;;;;;;5.22;0.32;;;;;;;6.26;72.62;99455.06;4940468;28;20075;-49
2023/04/11 01:00:34;;;;;;;2.28;2.08;;;;;;;6.25;72.05;99450.78;4943132;28;20058;-54
2023/04/11 01:03:01;;;;;;;2.33;0.50;;;;;;;6.29;71.34;99449.94;4940133;28;20052;-50
2023/04/11 01:05:30;;;;;;;3.78;1.27;;;;;;;6.26;71.56;99455.06;4945761;28;20055;-50
2023/04/11 01:07:58;;;;;;;2.22;0.50;;;;;;;6.32;71.26;99465.41;4946140;28;20075;-50
2023/04/11 01:10:29;;;;;;;4.75;0.93;;;;;;;6.27;71.18;99478.22;4946136;28;20086;-52
2023/04/11 01:12:59;;;;;;;2.95;2.65;;;;;;;6.29;70.66;99485.97;4942085;29;20050;-48
2023/04/11 01:15:25;;;;;;;3.65;0.88;;;;;;;6.28;70.76;99490.22;4940018;28;20075;-50
2023/04/11 01:17:54;;;;;;;1.95;0.50;;;;;;;6.22;71.43;99491.91;4944676;28;20127;-52
2023/04/11 01:20:23;;;;;;;2.03;1.50;;;;;;;6.25;70.76;99481.66;4943984;29;20055;-53
2023/04/11 01:22:50;;;;;;;2.28;1.23;;;;;;;6.23;70.96;99488.47;4941505;28;20043;-48
2023/04/11 01:25:21;;;;;;;2.22;0.20;;;;;;;6.27;70.78;99482.50;4944648;28;20118;-50
2023/04/11 01:27:48;;;;;;;2.42;1.45;;;;;;;6.27;71.35;99490.22;4944180;28;20055;-52
2023/04/11 01:30:15;;;;;;;8.32;1.65;;;;;;;6.28;70.11;99489.34;4938806;28;20043;-48
2023/04/11 01:32:41;;;;;;;1.65;0.30;;;;;;;6.29;71.20;99496.25;4941615;29;20083;-50
2023/04/11 01:35:10;;;;;;;1.95;1.75;;;;;;;6.24;71.04;99492.75;4940061;28;20088;-50
2023/04/11 01:37:37;;;;;;;4.10;1.77;;;;;;;6.26;70.86;99501.38;4928712;29;20094;-50
2023/04/11 01:40:05;;;;;;;1.17;0.50;;;;;;;6.25;70.73;99499.66;4948711;28;20133;-53
2023/04/11 01:42:32;;;;;;;1.88;0.52;;;;;;;6.25;70.29;99499.66;4946391;28;20589;-50
2023/04/11 01:44:59;;;;;;;2.45;0.50;;;;;;;6.25;70.62;99502.22;4942650;28;20462;-49
2023/04/11 01:47:26;;;;;;;2.05;0.30;;;;;;;6.22;71.65;99499.63;4946241;29;20087;-50
2023/04/11 01:49:52;;;;;;;3.78;0.30;;;;;;;6.19;71.37;99492.75;4946105;28;20081;-54
2023/04/11 01:52:19;;;;;;;4.85;0.30;;;;;;;6.20;70.11;99501.31;4949383;28;20126;-49
2023/04/11 01:54:45;;;;;;;3.45;0.40;;;;;;;6.21;70.60;99492.78;4947997;28;20511;-52
2023/04/11 01:57:12;;;;;;;3.10;0.57;;;;;;;6.20;69.74;99485.88;4943378;28;20074;-50
2023/04/11 01:59:38;;;;;;;0.50;0.30;;;;;;;6.09;70.71;99499.56;4946546;29;20051;-51
2023/04/11 02:02:05;;;;;;;1.00;0.35;;;;;;;6.15;69.86;99494.44;4945247;28;20137;-52
2023/04/11 02:04:32;;;;;;;0.65;0.20;;;;;;;6.14;71.34;99497.88;4946541;28;20059;-50
2023/04/11 02:06:58;;;;;;;1.63;0.30;;;;;;;6.15;70.39;99491.88;4946213;28;21358;-52
2023/04/11 02:09:25;;;;;;;3.97;0.40;;;;;;;6.13;71.26;99490.13;4945620;28;20043;-49
2023/04/11 02:11:51;;;;;;;3.20;0.55;;;;;;;6.16;70.97;99493.59;4945298;28;20087;-49
2023/04/11 02:14:19;;;;;;;4.07;1.83;;;;;;;6.13;70.68;99500.41;4946820;29;20102;-50
2023/04/11 02:16:55;;;;;;;4.05;1.55;;;;;;;6.14;70.77;99499.56;4948210;28;20067;-52
2023/04/11 02:19:24;;;;;;;1.83;1.48;;;;;;;6.11;71.75;99499.56;4947450;28;20479;-53
2023/04/11 02:21:51;;;;;;;3.83;2.08;;;;;;;6.11;72.51;99502.97;4946481;28;20051;-56
2023/04/11 02:24:18;;;;;;;8.70;2.28;;;;;;;6.12;71.59;99509.84;4946995;28;20740;-49
2023/04/11 02:26:44;;;;;;;4.32;1.50;;;;;;;6.10;71.59;99511.56;4948430;28;20086;-50
2023/04/11 02:29:11;;;;;;;3.17;1.58;;;;;;;6.10;72.44;99516.69;4944980;28;20553;-52
2023/04/11 02:31:38;;;;;;;1.88;0.77;;;;;;;6.10;72.76;99516.69;4948875;28;20503;-49
2023/04/11 02:34:04;;;;;;;2.45;1.83;;;;;;;6.09;72.82;99514.97;4948201;28;20499;-50
2023/04/11 02:36:31;;;;;;;4.68;1.60;;;;;;;6.11;71.76;99518.41;4942498;28;20098;-55
2023/04/11 02:38:58;;;;;;;3.67;1.08;;;;;;;6.10;71.04;99516.69;4943093;28;20531;-51
2023/04/11 02:41:25;;;;;;;1.90;1.75;;;;;;;6.08;71.08;99518.38;4946963;28;20059;-52
2023/04/11 02:43:51;;;;;;;8.52;1.77;;;;;;;6.09;71.77;99520.13;4944803;28;20102;-52
2023/04/11 02:46:18;;;;;;;5.65;0.65;;;;;;;6.06;71.76;99524.38;4943425;28;20043;-51
2023/04/11 02:48:44;;;;;;;6.60;1.55;;;;;;;6.03;72.03;99520.03;4948721;28;20051;-49
2023/04/11 02:51:11;;;;;;;7.05;1.75;;;;;;;6.05;71.29;99528.66;4945976;28;20075;-54
2023/04/11 02:53:38;;;;;;;2.70;0.57;;;;;;;6.07;72.03;99539.81;4946428;28;20043;-47
2023/04/11 02:56:06;;;;;;;2.28;0.40;;;;;;;6.04;71.35;99532.06;4943237;28;20090;-52
2023/04/11 02:58:33;;;;;;;7.38;0.85;;;;;;;6.05;71.33;99528.66;4947048;28;20415;-54
2023/04/11 03:01:00;;;;;;;2.22;0.35;;;;;;;6.04;70.98;99526.91;4942393;28;20121;-52
2023/04/11 03:03:27;;;;;;;3.67;0.75;;;;;;;6.01;70.98;99526.88;4946548;28;20047;-51
2023/04/11 03:05:55;;;;;;;1.40;1.27;;;;;;;6.01;70.38;99539.75;4946664;28;20579;-52
2023/04/11 03:08:22;;;;;;;6.78;0.60;;;;;;;5.97;70.46;99536.28;4948300;28;20043;-53
2023/04/11 03:10:49;;;;;;;1.33;0.57;;;;;;;5.98;71.44;99537.16;4947729;28;20094;-51
2023/04/11 03:13:15;;;;;;;9.48;2.38;;;;;;;5.92;70.32;99543.09;4945697;28;20075;-53
2023/04/11 03:15:42;;;;;;;5.38;0.40;;;;;;;5.92;71.17;99537.97;4941547;28;20051;-49
2023/04/11 03:18:09;;;;;;;1.50;0.60;;;;;;;5.87;70.61;99543.06;4943289;28;20458;-52
2023/04/11 03:20:35;;;;;;;3.78;1.38;;;;;;;5.86;70.63;99546.47;4940909;28;20058;-49
2023/04/11 03:23:02;;;;;;;2.78;0.70;;;;;;;5.87;70.76;99560.16;4945297;28;20089;-49
2023/04/11 03:25:29;;;;;;;3.75;0.75;;;;;;;5.86;71.37;99553.31;4945393;28;20075;-53
2023/04/11 03:27:55;;;;;;;3.83;0.43;;;;;;;5.81;70.85;99560.97;4945064;28;20050;-53
2023/04/11 03:30:22;;;;;;;5.97;0.57;;;;;;;5.82;70.17;99556.72;4941501;28;20043;-50
2023/04/11 03:32:49;;;;;;;2.97;1.80;;;;;;;5.80;71.35;99561.84;4944437;28;20047;-52
2023/04/11 03:35:17;;;;;;;8.32;0.88;;;;;;;5.80;70.95;99564.41;4942516;28;20066;-49
2023/04/11 03:37:44;;;;;;;2.15;0.63;;;;;;;5.76;70.15;99565.22;4943280;28;20677;-50
2023/04/11 03:40:10;;;;;;;4.85;1.58;;;;;;;5.76;70.70;99558.38;4944524;28;20063;-47
2023/04/11 03:42:37;;;;;;;3.67;1.38;;;;;;;5.73;70.42;99567.75;4944279;28;20358;-52
2023/04/11 03:45:04;;;;;;;4.78;0.63;;;;;;;5.71;70.02;99569.47;4942561;28;20134;-48
2023/04/11 03:47:31;;;;;;;4.43;1.60;;;;;;;5.74;69.75;99564.38;4942076;28;20083;-51
2023/04/11 03:49:59;;;;;;;9.60;0.52;;;;;;;5.71;70.71;99570.31;4941871;28;20047;-52
2023/04/11 03:52:25;;;;;;;3.78;0.82;;;;;;;5.69;70.02;99573.72;4942094;28;20137;-50
2023/04/11 03:54:52;;;;;;;2.17;1.85;;;;;;;5.66;70.77;99572.84;4938173;28;20135;-52
2023/04/11 03:57:18;;;;;;;8.32;1.25;;;;;;;5.68;69.76;99572.00;4944853;28;20504;-51
2023/04/11 03:59:46;;;;;;;7.07;1.10;;;;;;;5.64;70.63;99574.53;4941911;28;20063;-51
2023/04/11 04:02:14;;;;;;;5.10;1.83;;;;;;;5.60;70.63;99570.22;4940120;29;20055;-52
2023/04/11 04:04:45;;;;;;;6.63;0.85;;;;;;;5.61;69.88;99569.38;4942867;28;20055;-49
2023/04/11 04:07:13;;;;;;;2.80;0.52;;;;;;;5.57;70.80;99572.75;4944782;28;20055;-51
2023/04/11 04:09:40;;;;;;;3.03;0.40;;;;;;;5.52;69.55;99569.28;4947827;28;20077;-49
2023/04/11 04:12:06;;;;;;;7.13;1.27;;;;;;;5.52;70.07;99571.84;4944112;28;20784;-53
2023/04/11 04:14:33;;;;;;;3.13;2.08;;;;;;;5.50;70.47;99561.56;4945586;29;20633;-48
2023/04/11 04:16:59;;;;;;;7.22;0.50;;;;;;;5.49;70.70;99574.38;4945108;28;20081;-50
2023/04/11 04:19:26;;;;;;;0.80;0.35;;;;;;;5.46;70.40;99571.78;4945398;28;20626;-49
2023/04/11 04:21:56;;;;;;;3.22;0.40;;;;;;;5.43;70.11;99574.34;4942293;28;20067;-49
2023/04/11 04:24:28;;;;;;;;;;;;;;;5.35;70.52;99577.69;4941176;28;20136;-47
2023/04/11 04:26:59;;;;;;;5.30;1.63;;;;;;;5.36;69.38;99575.94;4947413;28;19973;-52
2023/04/11 04:29:32;;;;;;;4.65;0.50;;;;;;;5.39;69.85;99578.56;4942279;28;20131;-50
2023/04/11 04:32:01;;;;;;;1.75;0.32;;;;;;;5.37;70.15;99586.25;4945381;28;20051;-50
2023/04/11 04:34:28;;;;;;;5.47;1.75;;;;;;;5.34;69.89;99573.38;4941714;28;20448;-50
2023/04/11 04:36:58;;;;;;;3.05;1.63;;;;;;;5.31;70.18;99581.06;4940251;28;20103;-50
2023/04/11 04:39:28;;;;;;;3.28;0.55;;;;;;;5.30;69.66;99579.31;4942117;28;20141;-51
2023/04/11 04:41:58;;;;;;;3.47;3.20;;;;;;;5.30;69.98;99584.44;4940968;28;20412;-48
2023/04/11 04:44:25;;;;;;;7.60;0.73;;;;;;;5.30;70.12;99583.59;4940518;29;20207;-53
2023/04/11 04:46:54;;;;;;;3.05;0.70;;;;;;;5.28;69.42;99591.28;4936851;28;20047;-50
2023/04/11 04:49:21;;;;;;;2.97;0.60;;;;;;;5.27;69.83;99594.72;4936591;28;20048;-53
2023/04/11 04:51:47;;;;;;;1.83;0.80;;;;;;;5.23;69.43;99598.94;4940863;29;20086;-51
2023/04/11 04:54:18;;;;;;;2.95;0.55;;;;;;;5.22;69.21;99591.22;4943587;28;20130;-53
2023/04/11 04:56:46;;;;;;;;;;;;;;;5.13;70.12;99597.97;4946418;28;20446;-51
2023/04/11 04:59:15;;;;;;;5.93;0.65;;;;;;;5.16;69.76;99593.72;4942907;29;19922;-49
2023/04/11 05:01:41;;;;;;;4.63;0.52;;;;;;;5.12;70.29;99596.25;4944505;28;20057;-50
2023/04/11 05:04:08;;;;;;;2.42;0.60;;;;;;;5.12;70.14;99601.38;4938271;28;20051;-48
2023/04/11 05:06:35;;;;;;;3.42;0.50;;;;;;;5.12;69.83;99606.50;4939765;28;20052;-50
2023/04/11 05:09:04;;;;;;;5.55;0.57;;;;;;;5.12;69.75;99597.94;4944109;28;20055;-52
2023/04/11 05:11:32;;;;;;;1.38;0.63;;;;;;;5.07;70.07;99600.44;4940860;28;20768;-50
2023/04/11 05:13:59;;;;;;;0.80;0.38;;;;;;;5.10;70.75;99608.19;4948967;28;20139;-51
2023/04/11 05:16:25;;;;;;;3.85;2.30;;;;;;;5.12;69.73;99608.22;4945210;28;20640;-50
2023/04/11 05:18:52;;;;;;;2.97;1.58;;;;;;;5.12;70.45;99605.63;4944272;28;20098;-51
2023/04/11 05:21:19;;;;;;;2.25;0.80;;;;;;;5.12;70.21;99606.50;4942481;28;20086;-50
2023/04/11 05:23:46;;;;;;;6.10;1.10;;;;;;;5.14;70.90;99615.09;4946946;28;20071;-52
2023/04/11 05:26:13;;;;;;;3.47;0.52;;;;;;;5.18;70.92;99625.41;4939618;29;20383;-53
2023/04/11 05:28:40;;;;;;;4.38;0.47;;;;;;;5.18;70.41;99615.13;4947178;28;20075;-49
2023/04/11 05:31:08;;;;;;;4.22;0.73;;;;;;;5.12;70.45;99627.06;4940637;28;20118;-51
2023/04/11 05:33:37;;;;;;;3.30;0.55;;;;;;;5.19;70.97;99629.69;4942006;28;20043;-51
2023/04/11 05:36:05;;;;;;;3.97;0.70;;;;;;;5.21;70.78;99636.59;4943577;29;20051;-52
2023/04/11 05:38:32;;;;;;;5.05;1.70;;;;;;;5.23;70.99;99639.16;4945150;28;20057;-51
2023/04/11 05:40:59;;;;;;;7.80;0.77;;;;;;;5.22;70.52;99645.13;4942454;29;20102;-52
2023/04/11 05:43:26;;;;;;;4.15;0.52;;;;;;;5.24;70.57;99651.16;4943504;28;20047;-51
2023/04/11 05:45:52;;;;;;;4.40;0.45;;;;;;;5.25;70.88;99642.59;4947747;28;20106;-47
2023/04/11 05:48:19;;;;;;;3.05;1.75;;;;;;;5.24;70.30;99646.03;4946708;28;20518;-52
2023/04/11 05:50:45;;;;;;;4.18;2.33;;;;;;;5.24;71.21;99656.28;4945062;28;20656;-52
2023/04/11 05:53:12;;;;;;;3.83;0.65;;;;;;;5.27;71.10;99646.06;4947462;28;20088;-47
2023/04/11 05:55:39;;;;;;;3.22;0.40;;;;;;;5.27;71.03;99646.06;4948957;28;20145;-51
2023/04/11 05:58:05;;;;;;;4.22;0.85;;;;;;;5.28;70.91;99643.50;4947918;28;20050;-53
2023/04/11 06:00:32;;;;;;;9.40;0.32;;;;;;;5.32;70.16;99646.09;4944654;28;20137;-49
2023/04/11 06:03:00;;;;;;;2.90;0.40;;;;;;;5.33;70.70;99646.13;4940943;28;20047;-51
2023/04/11 06:05:30;;;;;;;6.40;0.63;;;;;;;5.35;70.82;99644.47;4941043;29;20050;-53
2023/04/11 06:07:58;;;;;;;6.03;1.73;;;;;;;5.38;70.19;99654.75;4942291;28;20098;-52
2023/04/11 06:10:25;;;;;;;2.90;0.47;;;;;;;5.40;70.40;99657.31;4936891;28;20161;-51
2023/04/11 06:12:52;;;;;;;2.40;0.50;;;;;;;5.36;71.13;99653.88;4942759;28;20071;-49
2023/04/11 06:15:19;;;;;;;3.55;0.63;;;;;;;5.44;71.34;99647.97;4946348;28;20113;-48
2023/04/11 06:17:46;;;;;;;5.72;2.08;;;;;;;5.48;71.21;99644.59;4948141;28;20051;-50
2023/04/11 06:20:13;;;;;;;4.88;0.60;;;;;;;5.48;71.44;99649.72;4938731;28;20138;-52
2023/04/11 06:22:40;;;;;;;2.28;0.45;;;;;;;5.55;70.19;99650.66;4944994;28;20074;-49
2023/04/11 06:25:07;;;;;;;4.78;1.00;;;;;;;5.59;70.88;99653.28;4948199;28;20158;-50
2023/04/11 06:27:34;;;;;;;0.50;0.20;;;;;;;5.59;71.24;99650.72;4940260;28;20083;-52
2023/04/11 06:30:01;;;;;;;3.45;1.00;;;;;;;5.64;70.72;99651.63;4942423;28;20070;-50
2023/04/11 06:32:27;;;;;;;5.65;0.63;;;;;;;5.71;70.72;99654.28;4944458;28;20043;-50
2023/04/11 06:34:54;;;;;;;6.75;1.77;;;;;;;5.76;70.20;99658.63;4940967;29;20063;-52
2023/04/11 06:37:22;;;;;;;1.83;1.33;;;;;;;5.81;69.57;99655.22;4943569;28;20118;-50
2023/04/11 06:39:48;;;;;;;1.42;0.60;;;;;;;5.83;70.75;99662.09;4939587;29;20048;-48
2023/04/11 06:42:15;;;;;;;7.20;0.88;;;;;;;5.89;69.92;99662.19;4945522;28;20085;-50
2023/04/11 06:44:41;;;;;;;5.13;2.15;;;;;;;6.00;71.14;99661.41;4936253;28;20332;-53
2023/04/11 06:47:08;;;;;;;4.57;1.38;;;;;;;6.06;70.45;99658.94;4942509;28;20051;-52
2023/04/11 06:49:35;;;;;;;6.32;0.57;;;;;;;6.10;71.04;99658.13;4938284;28;20075;-50
2023/04/11 06:52:02;;;;;;;11.88;2.00;;;;;;;6.17;69.37;99652.19;4939745;28;20051;-51
2023/04/11 06:54:29;;;;;;;4.05;1.15;;;;;;;6.27;70.51;99658.28;4938178;28;20143;-51
2023/04/11 06:56:56;;;;;;;6.57;0.77;;;;;;;6.50;70.40;99649.00;4937051;28;20043;-49
2023/04/11 06:59:22;;;;;;;2.13;0.50;;;;;;;7.01;68.61;99661.34;4936400;28;20051;-50
2023/04/11 07:01:50;;;;;;;4.43;2.35;;;;;;;7.19;69.28;99666.59;4941467;29;20528;-51
2023/04/11 07:04:16;;;;;;;7.18;0.50;;;;;;;7.36;68.15;99668.38;4935119;29;20052;-53
2023/04/11 07:06:43;;;;;;;4.22;0.95;;;;;;;7.94;67.84;99666.84;4939105;29;20721;-45
2023/04/11 07:09:11;;;;;;;2.22;0.68;;;;;;;8.76;67.09;99669.47;4936839;28;20094;-51
2023/04/11 07:11:38;;;;;;;5.88;0.80;;;;;;;9.47;66.27;99676.19;4930553;29;20492;-55
2023/04/11 07:14:05;;;;;;;6.18;0.70;;;;;;;10.20;65.11;99672.34;4943137;28;20059;-47
2023/04/11 07:16:32;;;;;;;3.70;0.95;;;;;;;10.70;63.84;99661.59;4932106;28;20079;-53
2023/04/11 07:18:58;;;;;;;8.32;1.88;;;;;;;11.20;62.35;99669.72;4938553;28;20519;-55
2023/04/11 07:21:27;;;;;;;3.20;0.60;;;;;;;11.69;61.57;99675.16;4942263;28;20085;-57
2023/04/11 07:23:53;;;;;;;4.85;1.60;;;;;;;12.12;59.95;99675.47;4936530;28;20075;-50
2023/04/11 07:26:22;;;;;;;6.40;1.80;;;;;;;12.40;59.95;99667.25;4936562;29;20054;-56
2023/04/11 07:28:50;;;;;;;5.13;2.30;;;;;;;12.74;58.43;99671.88;4933135;28;20059;-53
2023/04/11 07:31:18;;;;;;;10.45;2.05;;;;;;;13.09;58.55;99674.69;4936328;29;20129;-54
2023/04/11 07:33:45;;;;;;;6.15;2.38;;;;;;;13.46;57.65;99675.69;4937049;28;20039;-55
2023/04/11 07:36:11;;;;;;;5.40;1.67;;;;;;;13.81;57.08;99671.50;4934013;28;20736;-52
2023/04/11 07:38:38;;;;;;;4.07;2.13;;;;;;;14.26;56.31;99673.06;4941787;29;20043;-53
2023/04/11 07:41:05;;;;;;;3.65;1.48;;;;;;;14.72;56.53;99665.00;4939302;29;20566;-54
2023/04/11 07:43:32;;;;;;;5.07;1.73;;;;;;;15.14;55.14;99676.94;4933915;28;20128;-55
2023/04/11 07:45:59;;;;;;;7.40;1.95;;;;;;;15.28;54.05;99676.59;4936167;28;20047;-57
2023/04/11 07:48:26;;;;;;;5.72;2.35;;;;;;;15.32;52.84;99674.75;4945448;28;20093;-54
2023/04/11 07:50:54;;;;;;;4.93;0.60;;;;;;;15.46;52.20;99671.72;4944824;28;20094;-55
2023/04/11 07:53:21;;;;;;;4.35;2.45;;;;;;;15.70;51.71;99679.72;4943569;28;20050;-54
2023/04/11 07:55:47;;;;;;;9.98;5.22;;;;;;;15.83;51.48;99669.78;4943087;29;20047;-52
2023/04/11 07:58:14;;;;;;;18.92;10.63;;;;;;;16.01;50.45;99672.75;4941453;28;20054;-55
2023/04/11 08:00:41;;;;;;;15.23;5.80;;;;;;;16.24;50.89;99669.41;4938505;28;20783;-55
2023/04/11 08:03:09;;;;;;;14.85;6.97;;;;;;;16.60;50.19;99677.81;4938696;28;20054;-56
2023/04/11 08:05:36;;;;;;;6.57;3.70;;;;;;;16.78;48.98;99668.50;4944292;29;20487;-56
2023/04/11 08:08:03;;;;;;;4.88;3.90;;;;;;;16.85;49.16;99658.69;4939281;28;20086;-55
2023/04/11 08:10:30;;;;;;;5.47;2.83;;;;;;;17.13;48.26;99653.38;4937717;29;20138;-51
2023/04/11 08:12:58;;;;;;;8.07;1.95;;;;;;;17.19;46.93;99645.28;4939881;28;20079;-52
2023/04/11 08:15:25;;;;;;;3.85;2.25;;;;;;;17.28;47.96;99646.69;4938100;28;20051;-55
2023/04/11 08:17:55;;;;;;;3.17;2.05;;;;;;;17.38;47.08;99646.34;4942761;28;20055;-54
2023/04/11 08:20:23;;;;;;;2.78;2.42;;;;;;;17.67;47.64;99645.22;4941631;28;20051;-56
2023/04/11 08:22:50;;;;;;;3.47;2.33;;;;;;;17.76;46.06;99645.81;4940344;28;20051;-55
2023/04/11 08:25:18;;;;;;;8.60;3.88;;;;;;;17.85;45.84;99651.53;4939599;28;20066;-54
2023/04/11 08:27:45;;;;;;;11.15;3.60;;;;;;;18.17;46.31;99650.34;4935952;28;21287;-53
2023/04/11 08:30:12;;;;;;;12.43;3.47;;;;;;;18.31;46.14;99647.16;4935104;28;20499;-58
2023/04/11 08:32:41;;;;;;;15.38;4.70;;;;;;;18.45;45.70;99655.28;4935812;29;20060;-57
2023/04/11 08:35:08;;;;;;;7.35;2.92;;;;;;;18.30;43.25;99650.69;4944083;28;20043;-55
2023/04/11 08:37:35;;;;;;;7.75;2.30;;;;;;;18.13;43.96;99651.38;4937427;28;20415;-54
2023/04/11 08:40:05;;;;;;;7.95;3.75;;;;;;;18.17;44.15;99648.56;4938746;28;20070;-55
2023/04/11 08:42:34;;;;;;;8.80;4.05;;;;;;;18.42;45.02;99644.94;4937845;28;20055;-57
2023/04/11 08:45:04;;;;;;;5.82;2.42;;;;;;;18.48;43.25;99649.91;4936496;28;20468;-58
2023/04/11 08:47:31;;;;;;;6.75;3.30;;;;;;;18.54;43.49;99655.81;4945005;28;20102;-59
2023/04/11 08:49:57;;;;;;;6.22;2.88;;;;;;;18.49;43.25;99643.75;4948009;28;20043;-56
2023/04/11 08:52:25;;;;;;;5.55;2.78;;;;;;;18.57;43.48;99639.94;4944874;28;20051;-55
2023/04/11 08:54:54;;;;;;;12.98;3.85;;;;;;;18.79;43.73;99639.03;4945300;28;20050;-54
2023/04/11 08:57:25;;;;;;;6.63;2.53;;;;;;;18.90;42.75;99639.41;4948132;28;20074;-53
2023/04/11 08:59:58;;;;;;;7.10;2.30;;;;;;;19.10;44.03;99637.69;4946546;28;20078;-56
2023/04/11 09:02:26;;;;;;;4.65;1.83;;;;;;;19.33;42.20;99635.78;4938749;29;20050;-56
2023/04/11 09:04:53;;;;;;;5.38;2.35;;;;;;;19.46;43.20;99642.19;4939914;28;20059;-56
2023/04/11 09:07:20;;;;;;;4.90;1.88;;;;;;;19.70;42.89;99636.72;4944573;28;20047;-58
2023/04/11 09:09:47;;;;;;;5.35;1.80;;;;;;;19.86;42.46;99634.19;4946685;28;20086;-55
2023/04/11 09:12:14;;;;;;;7.20;2.40;;;;;;;20.01;42.45;99637.03;4941493;28;20114;-56
2023/04/11 09:14:41;;;;;;;4.07;1.70;;;;;;;20.29;42.99;99641.78;4940774;28;20067;-54
2023/04/11 09:17:15;;;;;;;4.97;2.30;;;;;;;20.33;41.79;99636.38;4940799;28;20058;-51
2023/04/11 09:19:42;;;;;;;3.78;1.77;;;;;;;20.13;40.41;99630.31;4943152;28;20055;-54
2023/04/11 09:22:12;;;;;;;2.78;2.28;;;;;;;20.23;41.21;99644.69;4946603;28;20047;-55
2023/04/11 09:24:39;;;;;;;2.97;2.05;;;;;;;20.25;40.99;99636.75;4943420;28;20070;-54
2023/04/11 09:27:15;;;;;;;8.30;2.80;;;;;;;20.11;40.44;99638.28;4946902;28;20146;-57
2023/04/11 09:29:44;;;;;;;3.15;2.10;;;;;;;19.93;40.20;99631.28;4938785;28;21842;-56
2023/04/11 09:35:22;;;;;;;5.18;0.75;;;;;;;20.05;39.97;99617.56;5051723;27;20399;-55
2023/04/11 09:37:58;;;;;;;3.88;1.73;;;;;;;20.15;40.56;99631.09;5086955;28;20537;-58
2023/04/11 09:40:27;;;;;;;4.93;0.80;;;;;;;20.07;40.42;99625.38;5069665;28;20071;-56
2023/04/11 09:42:57;;;;;;;2.33;0.80;;;;;;;20.16;38.84;99627.53;5071043;28;20048;-56
2023/04/11 09:45:25;;;;;;;5.88;1.42;;;;;;;19.97;39.42;99628.41;5077238;28;20216;-59
2023/04/11 09:47:54;;;;;;;5.68;1.77;;;;;;;19.91;39.21;99616.44;5075412;28;20495;-56
2023/04/11 09:50:22;;;;;;;2.10;1.27;;;;;;;19.82;39.86;99626.53;5073943;28;20609;-55
2023/04/11 09:52:49;;;;;;;7.07;2.70;;;;;;;19.74;40.51;99625.13;5075743;28;20131;-56
2023/04/11 09:55:19;;;;;;;9.90;3.58;;;;;;;19.72;39.83;99621.72;5068047;28;20629;-55
2023/04/11 09:57:47;;;;;;;2.17;0.70;;;;;;;19.81;40.87;99614.31;5058732;28;20423;-57
2023/04/11 10:00:18;;;;;;;4.93;0.80;;;;;;;19.88;41.05;99615.72;5056690;28;20092;-55
2023/04/11 10:02:48;;;;;;;3.70;0.73;;;;;;;19.98;41.33;99614.34;5053361;28;20049;-57
2023/04/11 10:05:17;;;;;;;5.55;1.90;;;;;;;20.11;42.21;99605.88;5057258;28;20485;-56
2023/04/11 10:07:47;;;;;;;3.13;0.50;;;;;;;20.29;41.52;99599.72;5054815;28;20131;-58
2023/04/11 10:10:16;;;;;;;2.58;1.35;;;;;;;20.36;41.85;99599.41;5043701;28;20623;-57
2023/04/11 10:12:43;;;;;;;3.05;0.82;;;;;;;20.24;40.60;99601.72;5044025;28;20072;-57
2023/04/11 10:15:10;;;;;;;10.23;3.40;;;;;;;20.28;41.86;99605.91;5042457;28;20072;-57
2023/04/11 10:17:38;;;;;;;11.48;3.42;;;;;;;20.39;41.66;99604.47;5038287;28;20506;-56
2023/04/11 10:20:45;;;;;;;6.53;2.65;;;;;;;20.35;40.40;99597.69;5036711;28;20500;-57
2023/04/11 10:23:13;;;;;;;3.60;1.48;;;;;;;19.95;39.49;99585.59;5024072;28;20077;-57
2023/04/11 10:28:39;;;;;;;7.30;2.58;;;;;;;19.43;39.83;99584.56;5100327;27;20412;-54
2023/04/11 10:34:17;;;;;;;3.22;1.27;;;;;;;19.36;40.87;99556.88;5044453;27;20406;-55
2023/04/11 10:37:02;;;;;;;;;;;;;;;19.50;41.37;99562.34;5011435;28;20069;-57
2023/04/11 10:42:31;;;;;;;6.78;1.98;;;;;;;19.45;41.34;99551.19;5045843;27;20763;-57
2023/04/11 10:50:40;;;;;;;8.40;2.63;;;;;;;19.23;41.70;99515.47;5099787;27;20899;-57
2023/04/11 10:53:32;;;;;;;2.72;0.35;;;;;;;19.10;41.37;99530.06;5038526;28;20460;-54
2023/04/11 10:56:00;;;;;;;4.60;0.85;;;;;;;18.87;41.56;99524.94;5031842;28;20049;-53
2023/04/11 10:58:37;;;;;;;4.85;0.70;;;;;;;18.86;42.53;99530.25;5033158;28;20421;-54
2023/04/11 11:03:52;;;;;;;3.17;2.08;;;;;;;18.44;41.95;99543.44;5042565;27;20401;-56
2023/04/11 11:06:20;;;;;;;3.65;2.97;;;;;;;18.28;42.88;99537.19;5011762;28;20058;-56
2023/04/11 11:08:46;;;;;;;4.00;2.13;;;;;;;18.24;42.85;99524.19;5011162;28;20089;-54
2023/04/11 11:11:15;;;;;;;6.63;2.67;;;;;;;18.17;43.08;99530.63;5019348;28;20126;-55
2023/04/11 11:16:21;;;;;;;2.35;1.42;;;;;;;18.11;43.50;99523.03;5023105;27;20415;-54
2023/04/11 11:18:51;;;;;;;3.58;1.55;;;;;;;18.19;43.30;99518.31;5001924;28;20062;-53
2023/04/11 11:21:20;;;;;;;5.78;0.70;;;;;;;18.13;43.42;99522.97;4996885;28;20073;-50
2023/04/11 11:23:56;;;;;;;1.02;0.40;;;;;;;17.95;43.39;99510.56;4996555;28;20054;-54
2023/04/11 11:26:41;;;;;;;1.05;0.70;;;;;;;17.66;44.19;99502.13;4998115;28;20049;-54
2023/04/11 11:29:09;;;;;;;4.03;0.90;;;;;;;17.59;44.90;99490.19;5001661;28;20084;-53
2023/04/11 11:31:40;;;;;;;1.20;0.85;;;;;;;17.31;44.25;99488.69;4995929;28;20077;-54
2023/04/11 11:34:08;;;;;;;4.60;1.73;;;;;;;17.07;45.04;99496.59;4997395;28;20050;-55
2023/04/11 11:36:50;;;;;;;3.33;0.60;;;;;;;16.65;45.31;99480.69;4992154;28;20398;-53
2023/04/11 11:39:17;;;;;;;3.40;0.95;;;;;;;16.47;45.08;99476.13;5027896;28;20077;-55
2023/04/11 11:41:46;;;;;;;6.75;0.90;;;;;;;16.45;45.91;99471.81;4997464;28;20108;-54
2023/04/11 11:44:29;;;;;;;3.03;1.13;;;;;;;16.48;45.98;99468.22;4991590;28;20062;-53
2023/04/11 11:47:01;;;;;;;5.70;1.25;;;;;;;16.58;46.39;99464.38;4996722;28;20125;-53
2023/04/11 11:49:46;;;;;;;5.03;1.58;;;;;;;16.64;46.60;99460.69;4997132;28;20073;-54
2023/04/11 11:52:32;;;;;;;1.88;0.52;;;;;;;16.75;46.45;99454.19;4993263;28;20050;-55
2023/04/11 11:55:00;;;;;;;3.60;0.70;;;;;;;16.72;45.44;99443.84;5022088;28;20046;-55
2023/04/11 11:57:26;;;;;;;2.38;0.60;;;;;;;16.59;45.90;99449.56;4981917;28;20057;-52
2023/04/11 11:59:55;;;;;;;2.45;0.65;;;;;;;16.53;45.34;99450.63;4980603;28;20804;-53
2023/04/11 12:02:24;;;;;;;3.05;0.77;;;;;;;16.47;45.45;99439.53;4991370;28;20069;-50
2023/04/11 12:05:00;;;;;;;4.22;1.17;;;;;;;16.42;46.16;99432.72;4988127;28;20046;-54
2023/04/11 12:07:32;;;;;;;5.30;0.57;;;;;;;16.43;45.89;99434.44;4984797;28;20054;-52